Time;durP1;ratioP1;P1;durP2;ratioP2;P2;SDS_P1;SDS_P2;PMS_P1;PMS_P2;Temp;Humidity;BMP_temperature;BMP_pressure;BME280_temperature;BME280_humidity;BME280_pressure;Samples;Min_cycle;Max_cycle;Signal;HPM_P1;HPM_P2
2023/06/19 00:00:53;;;;;;;6.05;3.97;;;23.40;69.10;;;;;;5031200;28;20041;-71
2023/06/19 00:03:19;;;;;;;6.18;4.20;;;23.40;68.60;;;;;;5029796;28;20095;-72
2023/06/19 00:05:45;;;;;;;4.68;3.97;;;23.40;68.70;;;;;;5030786;28;20434;-72
2023/06/19 00:08:10;;;;;;;6.40;4.32;;;23.40;68.70;;;;;;5030706;28;20452;-72
2023/06/19 00:10:36;;;;;;;5.72;4.15;;;23.30;68.80;;;;;;5030715;28;20423;-71
2023/06/19 00:13:02;;;;;;;7.60;4.20;;;23.30;69.00;;;;;;5030883;28;20490;-70
2023/06/19 00:15:29;;;;;;;5.43;4.65;;;23.20;68.80;;;;;;5029550;28;20393;-72
2023/06/19 00:17:56;;;;;;;4.80;3.90;;;23.20;68.80;;;;;;5030646;28;20030;-71
2023/06/19 00:20:22;;;;;;;6.05;4.10;;;23.20;69.00;;;;;;5030486;28;20037;-71
2023/06/19 00:22:51;;;;;;;7.65;4.20;;;23.20;68.90;;;;;;5030819;28;20452;-72
2023/06/19 00:25:18;;;;;;;7.05;4.38;;;23.20;69.00;;;;;;5030900;28;20018;-72
2023/06/19 00:27:44;;;;;;;5.53;3.85;;;23.20;69.30;;;;;;5030900;28;20037;-70
2023/06/19 00:30:09;;;;;;;6.95;4.38;;;23.10;69.60;;;;;;5030637;28;20088;-71
2023/06/19 00:32:46;;;;;;;6.10;3.90;;;23.10;69.00;;;;;;5030285;28;20045;-71
2023/06/19 00:35:15;;;;;;;7.68;3.95;;;23.10;69.50;;;;;;5030329;28;20045;-73
2023/06/19 00:37:44;;;;;;;8.25;4.28;;;23.10;69.20;;;;;;5029292;28;20041;-72
2023/06/19 00:40:19;;;;;;;5.22;4.07;;;23.10;70.40;;;;;;5030989;28;20030;-72
2023/06/19 00:42:45;;;;;;;8.70;4.25;;;23.10;69.50;;;;;;5030817;28;20034;-72
2023/06/19 00:45:10;;;;;;;9.98;4.40;;;23.10;69.40;;;;;;5029203;28;20033;-72
2023/06/19 00:47:36;;;;;;;4.75;3.78;;;23.10;69.50;;;;;;5030451;28;20029;-72
2023/06/19 00:50:02;;;;;;;6.47;3.80;;;23.00;69.70;;;;;;5030490;28;20164;-73
2023/06/19 00:52:28;;;;;;;7.35;4.35;;;23.00;69.80;;;;;;5030732;28;20029;-73
2023/06/19 00:54:53;;;;;;;8.15;3.83;;;22.90;70.40;;;;;;5029421;28;20491;-72
2023/06/19 00:57:19;;;;;;;7.30;4.35;;;22.90;70.00;;;;;;5030156;28;20519;-72
2023/06/19 00:59:45;;;;;;;13.82;4.88;;;22.90;69.80;;;;;;5030120;28;20125;-72
2023/06/19 01:02:11;;;;;;;7.93;4.50;;;23.00;69.30;;;;;;5030130;28;20075;-72
2023/06/19 01:04:36;;;;;;;7.35;4.35;;;23.00;69.70;;;;;;5030149;28;20079;-72
2023/06/19 01:07:11;;;;;;;7.30;4.40;;;23.00;69.90;;;;;;5030629;28;20034;-72
2023/06/19 01:09:45;;;;;;;6.18;3.90;;;22.90;70.00;;;;;;5030163;28;20482;-72
2023/06/19 01:12:27;;;;;;;7.15;4.13;;;22.90;70.30;;;;;;5030164;28;20041;-72
2023/06/19 01:14:58;;;;;;;5.70;4.05;;;22.90;70.20;;;;;;5029906;28;20033;-72
2023/06/19 01:17:25;;;;;;;6.60;3.92;;;22.90;70.40;;;;;;5030013;28;20033;-71
2023/06/19 01:19:51;;;;;;;7.03;3.92;;;22.90;70.50;;;;;;5030007;28;20083;-71
2023/06/19 01:22:30;;;;;;;6.90;4.53;;;22.90;70.00;;;;;;5030613;28;20025;-72
2023/06/19 01:24:56;;;;;;;5.47;3.97;;;22.90;70.90;;;;;;5029910;28;20117;-73
2023/06/19 01:27:29;;;;;;;7.22;4.45;;;22.90;70.40;;;;;;5030012;28;20249;-71
2023/06/19 01:29:56;;;;;;;6.63;3.92;;;22.90;70.20;;;;;;5029677;28;20048;-74
2023/06/19 01:32:54;;;;;;;7.82;4.55;;;22.90;70.40;;;;;;5029563;28;20124;-72
2023/06/19 01:35:23;;;;;;;5.80;4.10;;;22.90;70.20;;;;;;5031803;28;20033;-71
2023/06/19 01:37:49;;;;;;;3.53;3.22;;;22.90;70.40;;;;;;5048611;28;20032;-73
2023/06/19 01:40:16;;;;;;;6.80;4.22;;;22.90;70.50;;;;;;5050111;28;20033;-71
2023/06/19 01:42:43;;;;;;;6.18;4.10;;;22.80;70.40;;;;;;5049967;28;20497;-71
2023/06/19 01:45:09;;;;;;;6.38;4.30;;;22.90;70.80;;;;;;5049417;28;20037;-72
2023/06/19 01:47:35;;;;;;;6.18;4.40;;;22.80;71.10;;;;;;5049764;28;20078;-71
2023/06/19 01:50:00;;;;;;;6.80;4.05;;;22.80;71.20;;;;;;5049315;28;20060;-72
2023/06/19 01:52:26;;;;;;;5.85;4.25;;;22.80;70.80;;;;;;5049838;28;20082;-72
2023/06/19 01:54:52;;;;;;;6.72;4.10;;;22.80;70.40;;;;;;5048242;28;20029;-73
2023/06/19 01:57:18;;;;;;;6.72;3.95;;;22.80;70.90;;;;;;5049406;28;20120;-72
2023/06/19 01:59:43;;;;;;;5.68;4.05;;;22.80;70.90;;;;;;5049645;28;20025;-73
2023/06/19 02:02:10;;;;;;;6.20;3.80;;;22.80;71.40;;;;;;5049704;28;20030;-73
2023/06/19 02:04:36;;;;;;;8.18;3.90;;;22.70;71.30;;;;;;5049893;28;20021;-73
2023/06/19 02:07:01;;;;;;;5.45;4.15;;;22.80;70.90;;;;;;5051532;28;20071;-72
2023/06/19 02:09:27;;;;;;;10.50;4.07;;;22.70;71.20;;;;;;5053375;28;20041;-72
2023/06/19 02:11:53;;;;;;;7.50;4.15;;;22.70;71.50;;;;;;5051829;28;20033;-72
2023/06/19 02:14:18;;;;;;;6.18;4.05;;;22.60;71.60;;;;;;5053142;28;20139;-72
2023/06/19 02:16:44;;;;;;;5.78;3.83;;;22.60;71.80;;;;;;5053100;28;20095;-73
2023/06/19 02:19:11;;;;;;;4.55;3.67;;;22.60;71.70;;;;;;5052186;28;20024;-71
2023/06/19 02:21:37;;;;;;;6.85;4.22;;;22.60;71.50;;;;;;5053063;28;20033;-71
2023/06/19 02:24:03;;;;;;;6.90;4.32;;;22.60;71.50;;;;;;5052718;28;20451;-71
2023/06/19 02:26:29;;;;;;;5.95;3.90;;;22.50;72.30;;;;;;5052776;28;20044;-72
2023/06/19 02:28:55;;;;;;;5.78;3.90;;;22.60;72.40;;;;;;5051730;28;20040;-71
2023/06/19 02:31:24;;;;;;;8.45;4.50;;;22.60;72.60;;;;;;5052918;28;20025;-71
2023/06/19 02:33:50;;;;;;;6.50;4.80;;;22.40;73.00;;;;;;5052967;28;20091;-71
2023/06/19 02:36:19;;;;;;;7.20;4.03;;;22.30;73.40;;;;;;5052844;28;20089;-71
2023/06/19 02:38:49;;;;;;;7.25;4.47;;;22.40;73.40;;;;;;5052588;28;20086;-70
2023/06/19 02:41:14;;;;;;;4.90;3.97;;;22.40;73.50;;;;;;5052585;28;20056;-72
2023/06/19 02:43:42;;;;;;;5.60;4.10;;;22.40;73.50;;;;;;5052445;28;20475;-70
2023/06/19 02:46:08;;;;;;;6.88;4.57;;;22.40;73.40;;;;;;5052784;28;20542;-71
2023/06/19 02:48:33;;;;;;;9.13;3.88;;;22.40;73.40;;;;;;5052386;28;20208;-71
2023/06/19 02:50:59;;;;;;;9.35;4.22;;;22.40;73.30;;;;;;5052199;28;20399;-70
2023/06/19 02:53:24;;;;;;;5.53;3.85;;;22.40;73.00;;;;;;5052019;28;20045;-70
2023/06/19 02:55:50;;;;;;;6.50;3.90;;;22.50;73.10;;;;;;5052013;28;20170;-70
2023/06/19 02:58:16;;;;;;;7.88;3.47;;;22.40;72.80;;;;;;5052686;28;20025;-71
2023/06/19 03:00:41;;;;;;;6.95;3.88;;;22.40;72.80;;;;;;5052097;28;20044;-71
2023/06/19 03:03:07;;;;;;;10.70;4.05;;;22.40;72.60;;;;;;5052154;28;20033;-72
2023/06/19 03:05:33;;;;;;;5.68;3.65;;;22.40;73.00;;;;;;5052052;28;20139;-70
2023/06/19 03:07:58;;;;;;;7.28;3.75;;;22.40;73.10;;;;;;5052040;28;20033;-71
2023/06/19 03:10:24;;;;;;;5.85;3.83;;;22.40;72.90;;;;;;5052256;28;20029;-72
2023/06/19 03:12:50;;;;;;;5.55;3.88;;;22.40;73.00;;;;;;5051606;28;20388;-72
2023/06/19 03:15:16;;;;;;;5.07;4.15;;;22.40;72.90;;;;;;5051944;28;20033;-72
2023/06/19 03:17:41;;;;;;;7.03;4.68;;;22.30;72.70;;;;;;5051462;28;20033;-72
2023/06/19 03:20:11;;;;;;;5.35;3.67;;;22.30;72.80;;;;;;5051783;28;20036;-71
2023/06/19 03:22:40;;;;;;;5.15;3.72;;;22.30;72.80;;;;;;5051816;28;20044;-70
2023/06/19 03:25:07;;;;;;;7.88;3.80;;;22.20;73.00;;;;;;5052002;28;20455;-73
2023/06/19 03:27:33;;;;;;;7.03;3.67;;;22.40;72.90;;;;;;5050464;28;20043;-72
2023/06/19 03:29:59;;;;;;;6.47;3.97;;;22.40;73.00;;;;;;5051662;28;20425;-72
2023/06/19 03:32:24;;;;;;;5.80;4.13;;;22.30;73.00;;;;;;5051606;28;20142;-73
2023/06/19 03:34:50;;;;;;;4.25;3.55;;;22.30;73.30;;;;;;5051966;28;20118;-71
2023/06/19 03:37:16;;;;;;;7.10;3.90;;;22.30;73.20;;;;;;5051889;28;20021;-69
2023/06/19 03:39:42;;;;;;;5.60;3.95;;;22.20;73.00;;;;;;5051458;28;20056;-73
2023/06/19 03:42:08;;;;;;;7.53;3.67;;;22.20;73.00;;;;;;5051480;28;20037;-72
2023/06/19 03:44:34;;;;;;;7.32;4.45;;;22.20;73.70;;;;;;5050058;28;20044;-73
2023/06/19 03:46:59;;;;;;;5.10;3.90;;;22.20;73.10;;;;;;5051394;28;20052;-72
2023/06/19 03:49:25;;;;;;;5.75;3.95;;;22.20;72.70;;;;;;5051697;28;20403;-73
2023/06/19 03:51:52;;;;;;;5.82;4.05;;;22.20;72.90;;;;;;5050203;28;20033;-72
2023/06/19 03:54:17;;;;;;;5.43;4.00;;;22.20;73.00;;;;;;5051519;28;20031;-73
2023/06/19 03:56:43;;;;;;;4.65;4.07;;;22.20;72.90;;;;;;5050050;28;20132;-72
2023/06/19 03:59:08;;;;;;;4.78;3.63;;;22.20;73.10;;;;;;5051219;28;20041;-71
2023/06/19 04:01:34;;;;;;;5.65;3.83;;;22.30;72.40;;;;;;5051147;28;20406;-72
2023/06/19 04:04:00;;;;;;;5.80;3.90;;;22.30;73.30;;;;;;5051681;28;20040;-72
2023/06/19 04:06:25;;;;;;;6.38;3.63;;;22.30;73.00;;;;;;5051133;28;20029;-72
2023/06/19 04:08:52;;;;;;;7.57;4.50;;;22.30;73.30;;;;;;5050938;28;20052;-72
2023/06/19 04:11:18;;;;;;;10.48;4.38;;;22.20;73.80;;;;;;5051137;28;20052;-72
2023/06/19 04:13:43;;;;;;;12.68;4.00;;;22.20;73.90;;;;;;5050994;28;20106;-71
2023/06/19 04:16:09;;;;;;;6.07;3.75;;;22.20;74.20;;;;;;5051237;28;20446;-71
2023/06/19 04:18:35;;;;;;;10.40;4.20;;;22.20;74.20;;;;;;5051024;28;20044;-72
2023/06/19 04:21:00;;;;;;;7.30;3.72;;;22.20;74.20;;;;;;5050677;28;20025;-71
2023/06/19 04:23:26;;;;;;;6.07;4.07;;;22.20;73.80;;;;;;5049545;28;20025;-71
2023/06/19 04:25:52;;;;;;;6.45;3.97;;;22.20;74.10;;;;;;5050460;28;20064;-71
2023/06/19 04:28:17;;;;;;;7.53;3.63;;;22.20;73.90;;;;;;5051233;28;20048;-72
2023/06/19 04:30:43;;;;;;;7.28;4.35;;;22.20;73.70;;;;;;5050410;28;20047;-73
2023/06/19 04:33:08;;;;;;;10.52;4.30;;;22.20;74.00;;;;;;5049087;28;20052;-71
2023/06/19 04:35:39;;;;;;;5.47;3.60;;;22.20;74.60;;;;;;5050352;28;20033;-72
2023/06/19 04:38:05;;;;;;;7.38;4.60;;;22.20;74.20;;;;;;5049127;28;20116;-71
2023/06/19 04:40:32;;;;;;;8.45;3.97;;;22.20;74.20;;;;;;5050565;28;20083;-71
2023/06/19 04:42:58;;;;;;;7.32;4.40;;;22.30;73.80;;;;;;5050347;28;20037;-73
2023/06/19 04:45:24;;;;;;;7.00;4.25;;;22.20;74.00;;;;;;5050107;28;20047;-73
2023/06/19 04:47:49;;;;;;;12.25;4.97;;;22.20;73.70;;;;;;5049102;28;20033;-71
2023/06/19 04:50:16;;;;;;;8.18;4.18;;;22.30;73.60;;;;;;5050277;28;20459;-71
2023/06/19 04:52:42;;;;;;;5.85;4.00;;;22.40;73.90;;;;;;5050185;28;20013;-71
2023/06/19 04:55:11;;;;;;;7.53;3.90;;;22.40;74.60;;;;;;5049374;28;20391;-72
2023/06/19 04:57:37;;;;;;;10.75;4.50;;;22.40;74.80;;;;;;5048951;28;20025;-71
2023/06/19 05:00:06;;;;;;;8.18;4.15;;;22.40;75.70;;;;;;5050055;28;20121;-72
2023/06/19 05:02:33;;;;;;;9.95;4.50;;;22.30;75.30;;;;;;5050002;28;20041;-71
2023/06/19 05:05:02;;;;;;;10.70;4.13;;;22.30;75.90;;;;;;5050101;28;20055;-71
2023/06/19 05:07:31;;;;;;;6.25;4.10;;;22.30;75.80;;;;;;5050264;28;20029;-72
2023/06/19 05:09:56;;;;;;;10.20;4.80;;;22.30;76.20;;;;;;5049078;28;20029;-71
2023/06/19 05:12:22;;;;;;;6.65;4.57;;;22.30;75.90;;;;;;5049857;28;20043;-71
2023/06/19 05:14:48;;;;;;;4.75;3.88;;;22.30;76.70;;;;;;5048753;28;20025;-71
2023/06/19 05:17:14;;;;;;;7.65;4.32;;;22.30;77.20;;;;;;5050084;28;20029;-70
2023/06/19 05:19:39;;;;;;;9.50;5.20;;;22.40;77.20;;;;;;5050177;28;20036;-71
2023/06/19 05:22:06;;;;;;;11.38;5.10;;;22.50;78.50;;;;;;5050399;28;20099;-72
2023/06/19 05:24:32;;;;;;;7.43;5.05;;;22.50;78.80;;;;;;5049785;28;20449;-71
2023/06/19 05:26:58;;;;;;;8.10;5.13;;;22.60;77.90;;;;;;5048311;28;20032;-71
2023/06/19 05:29:23;;;;;;;11.63;4.50;;;22.60;77.80;;;;;;5050122;28;20096;-72
2023/06/19 05:31:49;;;;;;;8.93;4.85;;;22.60;79.00;;;;;;5049738;28;20081;-72
2023/06/19 05:34:15;;;;;;;8.93;5.13;;;22.50;79.70;;;;;;5050299;28;20359;-72
2023/06/19 05:36:40;;;;;;;5.53;4.10;;;22.40;80.60;;;;;;5050273;28;20033;-72
2023/06/19 05:39:06;;;;;;;6.63;4.32;;;22.30;80.50;;;;;;5049766;28;20021;-69
2023/06/19 05:41:32;;;;;;;6.05;4.00;;;22.40;80.70;;;;;;5049613;28;20131;-69
2023/06/19 05:43:57;;;;;;;6.43;4.80;;;22.30;80.20;;;;;;5053836;28;20040;-67
2023/06/19 05:46:23;;;;;;;6.45;4.35;;;22.30;80.10;;;;;;5054111;28;20513;-68
2023/06/19 05:48:49;;;;;;;7.68;4.25;;;22.20;80.40;;;;;;5053390;28;20029;-70
2023/06/19 05:51:14;;;;;;;6.38;4.30;;;22.20;80.20;;;;;;5053413;28;20115;-68
2023/06/19 05:53:40;;;;;;;11.35;4.50;;;22.20;80.60;;;;;;5053210;28;20033;-69
2023/06/19 05:56:06;;;;;;;15.70;8.20;;;22.30;80.20;;;;;;5053249;28;20049;-69
2023/06/19 05:58:32;;;;;;;14.95;7.18;;;22.40;80.00;;;;;;5053757;28;20435;-70
2023/06/19 06:00:58;;;;;;;11.10;5.60;;;22.30;79.90;;;;;;5053342;28;20056;-69
2023/06/19 06:03:27;;;;;;;10.70;6.63;;;22.40;79.90;;;;;;5053347;28;20102;-70
2023/06/19 06:05:53;;;;;;;16.90;9.93;;;22.30;80.10;;;;;;5053142;28;20041;-68
2023/06/19 06:08:19;;;;;;;13.48;7.72;;;22.20;79.90;;;;;;5052899;28;20106;-70
2023/06/19 06:10:45;;;;;;;9.93;6.38;;;22.30;79.80;;;;;;5052944;28;20075;-68
2023/06/19 06:13:10;;;;;;;8.63;4.70;;;22.30;79.70;;;;;;5053641;28;20029;-69
2023/06/19 06:15:36;;;;;;;7.53;4.72;;;22.30;80.20;;;;;;5053289;28;20479;-70
2023/06/19 06:18:03;;;;;;;8.88;4.50;;;22.30;80.40;;;;;;5052086;28;20025;-68
2023/06/19 06:20:29;;;;;;;9.20;4.70;;;22.30;80.40;;;;;;5053068;28;20067;-69
2023/06/19 06:22:54;;;;;;;7.20;5.05;;;22.40;80.30;;;;;;5052817;28;20762;-68
2023/06/19 06:25:20;;;;;;;9.15;5.40;;;22.50;80.70;;;;;;5047788;28;20072;-69
2023/06/19 06:27:46;;;;;;;6.95;4.70;;;22.40;80.80;;;;;;5033015;28;20482;-68
2023/06/19 06:30:12;;;;;;;7.43;4.80;;;22.50;81.60;;;;;;5031208;28;20026;-69
2023/06/19 06:32:38;;;;;;;9.02;4.63;;;22.40;81.60;;;;;;5032463;28;20042;-69
2023/06/19 06:35:04;;;;;;;12.13;5.30;;;22.50;81.80;;;;;;5032583;28;20089;-68
2023/06/19 06:37:30;;;;;;;23.95;13.15;;;22.50;82.90;;;;;;5033137;28;20018;-68
2023/06/19 06:39:56;;;;;;;11.70;7.03;;;22.50;82.90;;;;;;5032805;28;20084;-69
2023/06/19 06:42:21;;;;;;;9.30;5.75;;;22.50;83.10;;;;;;5033193;28;20061;-70
2023/06/19 06:44:47;;;;;;;8.32;5.18;;;22.60;82.70;;;;;;5032479;28;20022;-70
2023/06/19 06:47:12;;;;;;;12.27;5.70;;;22.60;83.00;;;;;;5032699;28;20034;-70
2023/06/19 06:49:38;;;;;;;8.32;4.75;;;22.60;82.80;;;;;;5032401;28;20029;-71
2023/06/19 06:52:04;;;;;;;10.20;5.35;;;22.70;82.80;;;;;;5032985;28;20041;-69
2023/06/19 06:54:30;;;;;;;7.32;5.18;;;22.70;82.70;;;;;;5031329;28;20037;-68
2023/06/19 06:56:58;;;;;;;14.07;5.70;;;22.70;83.00;;;;;;5032388;28;20083;-70
2023/06/19 06:59:24;;;;;;;8.48;4.95;;;22.70;83.20;;;;;;5032648;28;20042;-70
2023/06/19 07:01:50;;;;;;;9.57;4.85;;;22.80;82.80;;;;;;5032825;28;20432;-69
2023/06/19 07:04:16;;;;;;;7.20;4.72;;;22.80;82.50;;;;;;5031788;28;20029;-69
2023/06/19 07:06:41;;;;;;;9.80;4.97;;;22.80;82.20;;;;;;5032078;28;20025;-68
2023/06/19 07:09:07;;;;;;;6.82;5.25;;;22.90;81.70;;;;;;5032030;28;20040;-71
2023/06/19 07:11:33;;;;;;;11.32;5.68;;;23.00;81.50;;;;;;5032435;28;20078;-71
2023/06/19 07:13:58;;;;;;;9.05;5.50;;;23.10;81.50;;;;;;5032947;28;20037;-71
2023/06/19 07:16:24;;;;;;;13.55;7.90;;;23.20;81.10;;;;;;5031988;28;20456;-72
2023/06/19 07:18:50;;;;;;;20.00;8.00;;;23.30;81.00;;;;;;5032580;28;20375;-73
2023/06/19 07:21:15;;;;;;;12.00;6.05;;;23.40;80.80;;;;;;5032461;28;20025;-75
2023/06/19 07:23:45;;;;;;;7.57;5.10;;;23.60;80.40;;;;;;5032257;28;20088;-72
2023/06/19 07:26:10;;;;;;;10.93;5.65;;;23.60;80.40;;;;;;5031104;28;20033;-72
2023/06/19 07:28:36;;;;;;;12.27;6.05;;;23.60;80.30;;;;;;5032018;28;20032;-70
2023/06/19 07:31:03;;;;;;;7.10;5.13;;;23.70;79.50;;;;;;5032519;28;20036;-72
2023/06/19 07:33:29;;;;;;;12.90;5.95;;;23.80;79.30;;;;;;5032582;28;20347;-71
2023/06/19 07:35:55;;;;;;;8.75;5.88;;;23.90;79.40;;;;;;5030987;28;20025;-70
2023/06/19 07:38:21;;;;;;;8.15;5.43;;;24.00;79.00;;;;;;5031786;28;20107;-69
2023/06/19 07:40:46;;;;;;;11.35;5.50;;;24.20;77.90;;;;;;5032246;28;20440;-70
2023/06/19 07:43:12;;;;;;;8.38;6.00;;;24.20;77.90;;;;;;5031501;28;20530;-69
2023/06/19 07:45:38;;;;;;;9.32;5.55;;;24.20;77.50;;;;;;5031923;28;20475;-69
2023/06/19 07:48:03;;;;;;;8.13;5.80;;;24.30;77.50;;;;;;5031964;28;20048;-69
2023/06/19 07:50:29;;;;;;;9.73;5.82;;;24.40;77.60;;;;;;5032276;28;20033;-71
2023/06/19 07:52:55;;;;;;;9.13;5.53;;;24.60;77.90;;;;;;5030553;28;20033;-69
2023/06/19 07:55:20;;;;;;;9.63;5.53;;;24.60;77.90;;;;;;5032303;28;20415;-69
2023/06/19 07:57:46;;;;;;;12.13;6.07;;;24.90;78.20;;;;;;5030553;28;20418;-71
2023/06/19 08:00:12;;;;;;;10.45;5.75;;;25.10;78.00;;;;;;5031563;28;20030;-69
2023/06/19 08:02:39;;;;;;;13.82;6.00;;;25.30;77.90;;;;;;5031289;28;20037;-71
2023/06/19 08:05:08;;;;;;;7.90;5.50;;;25.40;78.00;;;;;;5031017;28;20033;-71
2023/06/19 08:07:34;;;;;;;11.45;5.90;;;25.60;77.30;;;;;;5031405;28;20025;-69
2023/06/19 08:10:00;;;;;;;7.85;5.57;;;25.80;77.70;;;;;;5030758;28;20036;-69
2023/06/19 08:12:25;;;;;;;12.50;5.70;;;26.00;76.80;;;;;;5031286;28;20450;-71
2023/06/19 08:14:51;;;;;;;7.18;5.43;;;26.20;76.20;;;;;;5031044;28;20256;-70
2023/06/19 08:17:17;;;;;;;9.80;5.35;;;26.10;75.80;;;;;;5031210;28;20065;-71
2023/06/19 08:19:43;;;;;;;7.30;5.25;;;26.30;76.10;;;;;;5031218;28;20022;-70
2023/06/19 08:22:08;;;;;;;9.65;6.28;;;26.50;75.90;;;;;;5031613;28;20041;-70
2023/06/19 08:24:36;;;;;;;11.55;6.20;;;26.70;75.70;;;;;;5030176;28;20030;-71
2023/06/19 08:27:02;;;;;;;7.60;5.43;;;26.90;75.20;;;;;;5030479;28;20084;-70
2023/06/19 08:29:28;;;;;;;7.55;5.72;;;26.90;74.70;;;;;;5030883;28;20034;-70
2023/06/19 08:31:53;;;;;;;10.52;5.93;;;27.00;74.40;;;;;;5030329;28;20049;-71
2023/06/19 08:34:19;;;;;;;10.32;5.15;;;27.10;74.70;;;;;;5030982;28;20075;-70
2023/06/19 08:36:45;;;;;;;8.68;5.07;;;27.40;74.30;;;;;;5029871;28;20033;-71
2023/06/19 08:39:11;;;;;;;7.32;5.28;;;27.40;73.90;;;;;;5030889;28;20464;-69
2023/06/19 08:41:38;;;;;;;7.40;4.90;;;27.70;72.90;;;;;;5030461;28;20029;-71
2023/06/19 08:44:05;;;;;;;10.63;5.07;;;28.00;72.80;;;;;;5030793;28;20534;-71
2023/06/19 08:46:30;;;;;;;10.90;4.90;;;28.50;72.70;;;;;;5030068;28;20133;-73
2023/06/19 08:48:56;;;;;;;6.53;5.10;;;29.00;71.50;;;;;;5030723;28;20371;-71
2023/06/19 08:51:22;;;;;;;10.23;5.13;;;30.10;70.30;;;;;;5030564;28;20072;-71
2023/06/19 08:53:54;;;;;;;6.05;4.20;;;30.70;68.60;;;;;;5030842;28;20471;-72
2023/06/19 08:56:20;;;;;;;7.50;5.47;;;31.10;68.50;;;;;;5030633;28;20045;-71
2023/06/19 08:58:46;;;;;;;9.32;4.88;;;31.40;66.20;;;;;;5030203;28;20034;-74
2023/06/19 09:01:16;;;;;;;6.55;4.97;;;31.90;65.30;;;;;;5030950;28;20025;-70
2023/06/19 09:03:42;;;;;;;5.75;4.47;;;31.70;64.70;;;;;;5029449;28;20384;-69
2023/06/19 09:06:08;;;;;;;7.30;4.82;;;31.40;65.60;;;;;;5030733;28;20326;-70
2023/06/19 09:08:34;;;;;;;6.25;4.63;;;31.30;64.80;;;;;;5030899;28;20469;-71
2023/06/19 09:11:04;;;;;;;6.03;4.43;;;31.40;64.90;;;;;;5030160;28;20117;-72
2023/06/19 09:13:31;;;;;;;9.43;7.30;;;31.50;64.60;;;;;;5031239;28;20394;-72
2023/06/19 09:15:59;;;;;;;38.95;30.77;;;32.00;64.60;;;;;;5030931;28;20098;-72
2023/06/19 09:18:24;;;;;;;6.47;5.13;;;32.40;63.50;;;;;;5035316;28;20479;-72
2023/06/19 09:20:53;;;;;;;9.00;5.88;;;31.70;63.70;;;;;;5034129;28;20026;-70
2023/06/19 09:23:19;;;;;;;7.80;4.88;;;31.60;63.90;;;;;;5035106;28;20128;-71
2023/06/19 09:25:50;;;;;;;7.00;5.43;;;31.00;65.50;;;;;;5034372;28;20053;-72
2023/06/19 09:28:21;;;;;;;6.82;4.80;;;30.70;65.90;;;;;;5035589;28;20018;-73
2023/06/19 09:30:53;;;;;;;8.80;4.97;;;31.10;65.50;;;;;;5033784;28;20431;-71
2023/06/19 09:33:19;;;;;;;6.40;4.95;;;31.30;65.70;;;;;;5034762;28;20059;-70
2023/06/19 09:35:45;;;;;;;9.23;5.20;;;31.10;65.40;;;;;;5034363;28;20175;-70
2023/06/19 09:38:12;;;;;;;6.82;4.70;;;30.80;66.00;;;;;;5034758;28;20120;-72
2023/06/19 09:40:38;;;;;;;15.40;11.00;;;30.50;66.50;;;;;;5034247;28;20021;-71
2023/06/19 09:43:06;;;;;;;7.57;4.65;;;30.70;66.70;;;;;;5034729;28;20125;-71
2023/06/19 09:45:34;;;;;;;8.60;4.72;;;30.50;67.30;;;;;;5033806;28;20365;-71
2023/06/19 09:47:59;;;;;;;6.00;4.78;;;30.30;66.80;;;;;;5033971;28;20464;-71
2023/06/19 09:50:27;;;;;;;6.10;4.25;;;30.60;67.10;;;;;;5033657;28;20089;-73
2023/06/19 09:52:55;;;;;;;;;;;30.70;67.00;;;;;;5033823;28;20033;-73
2023/06/19 09:55:23;;;;;;;;;;;30.70;66.50;;;;;;5034745;28;19971;-72
2023/06/19 09:57:50;;;;;;;6.82;4.18;;;30.40;67.00;;;;;;5033189;28;20334;-70
2023/06/19 10:00:21;;;;;;;6.72;4.88;;;30.20;67.60;;;;;;5033287;28;20033;-72
2023/06/19 10:02:48;;;;;;;8.50;4.65;;;30.10;68.50;;;;;;5033511;28;20112;-73
2023/06/19 10:05:14;;;;;;;5.77;4.23;;;30.10;68.40;;;;;;5033659;28;20041;-71
2023/06/19 10:07:45;;;;;;;6.05;4.18;;;29.80;69.30;;;;;;5033196;28;20060;-71
2023/06/19 10:10:24;;;;;;;7.95;4.80;;;29.60;69.30;;;;;;5033659;28;20039;-68
2023/06/19 10:12:50;;;;;;;5.97;4.07;;;29.90;69.60;;;;;;5033498;28;20140;-71
2023/06/19 10:15:21;;;;;;;6.80;4.32;;;29.90;69.30;;;;;;5033396;28;20084;-71
2023/06/19 10:17:59;;;;;;;7.55;4.63;;;30.00;69.50;;;;;;5033465;28;20037;-69
2023/06/19 10:20:31;;;;;;;;;;;29.80;69.60;;;;;;5033966;28;20038;-71
2023/06/19 10:23:01;;;;;;;5.20;4.10;;;29.90;69.00;;;;;;5033574;28;20391;-70
2023/06/19 10:25:35;;;;;;;6.93;4.25;;;29.50;69.40;;;;;;5033546;28;20112;-70
2023/06/19 10:28:01;;;;;;;6.05;4.32;;;29.40;70.00;;;;;;5032109;28;20041;-71
2023/06/19 10:30:29;;;;;;;7.88;3.55;;;29.50;69.90;;;;;;5032934;28;20359;-70
2023/06/19 10:32:55;;;;;;;5.75;3.85;;;29.30;70.80;;;;;;5032536;28;20265;-71
2023/06/19 10:35:21;;;;;;;7.50;4.20;;;29.60;70.80;;;;;;5032572;28;20030;-71
2023/06/19 10:37:47;;;;;;;23.90;18.90;;;29.60;70.50;;;;;;5032695;28;20444;-70
2023/06/19 10:40:13;;;;;;;6.90;5.38;;;29.90;70.70;;;;;;5033264;28;20638;-69
2023/06/19 10:42:40;;;;;;;5.13;3.85;;;29.70;70.40;;;;;;5032810;28;20067;-70
2023/06/19 10:45:17;;;;;;;7.45;4.10;;;29.70;70.30;;;;;;5032466;28;20033;-71
2023/06/19 10:47:43;;;;;;;5.45;3.65;;;29.50;70.50;;;;;;5032492;28;20029;-69
2023/06/19 10:50:15;;;;;;;5.57;3.63;;;29.60;70.80;;;;;;5032807;28;20099;-69
2023/06/19 10:52:43;;;;;;;5.50;3.83;;;29.10;71.10;;;;;;5032071;28;20376;-68
2023/06/19 10:55:10;;;;;;;6.93;4.50;;;29.50;71.30;;;;;;5033343;28;20017;-69
2023/06/19 10:57:35;;;;;;;6.10;3.23;;;29.70;70.90;;;;;;5031418;28;20034;-68
2023/06/19 11:00:05;;;;;;;4.90;3.40;;;30.00;70.40;;;;;;5032123;28;20387;-68
2023/06/19 11:02:31;;;;;;;4.20;3.22;;;30.00;69.80;;;;;;5032121;28;20072;-69
2023/06/19 11:04:57;;;;;;;8.38;3.63;;;29.50;71.00;;;;;;5032786;28;20068;-70
2023/06/19 11:07:23;;;;;;;11.48;7.32;;;29.80;70.80;;;;;;5032783;28;20480;-69
2023/06/19 11:09:49;;;;;;;5.70;4.30;;;29.90;70.00;;;;;;5032597;28;20064;-71
2023/06/19 11:12:21;;;;;;;4.00;3.10;;;29.50;69.90;;;;;;5032336;28;20034;-71
2023/06/19 11:14:50;;;;;;;5.40;3.42;;;29.40;70.00;;;;;;5032287;28;20029;-69
2023/06/19 11:17:20;;;;;;;4.15;2.65;;;29.50;69.70;;;;;;5033394;28;20095;-68
2023/06/19 11:19:46;;;;;;;4.50;2.50;;;29.80;69.10;;;;;;5032466;28;20407;-70
2023/06/19 11:22:12;;;;;;;6.22;2.75;;;29.70;68.90;;;;;;5032770;28;20110;-69
2023/06/19 11:24:46;;;;;;;9.38;3.10;;;29.50;69.10;;;;;;5032035;28;20475;-70
2023/06/19 11:27:27;;;;;;;2.63;2.42;;;29.50;69.40;;;;;;5032043;28;20124;-70
2023/06/19 11:29:59;;;;;;;3.72;2.83;;;29.30;69.80;;;;;;5030748;28;20037;-70
2023/06/19 11:32:32;;;;;;;4.60;2.88;;;29.30;70.00;;;;;;5031616;28;20210;-69
2023/06/19 11:35:04;;;;;;;2.88;2.38;;;29.40;69.70;;;;;;5030550;28;20033;-70
2023/06/19 11:37:29;;;;;;;3.55;2.65;;;29.30;68.90;;;;;;5030634;28;20467;-70
2023/06/19 11:39:57;;;;;;;4.35;2.45;;;29.40;69.20;;;;;;5030503;28;20049;-71
2023/06/19 11:42:25;;;;;;;8.02;2.13;;;29.20;68.80;;;;;;5031860;28;20363;-72
2023/06/19 11:45:02;;;;;;;3.08;2.40;;;29.10;69.30;;;;;;5031288;28;20056;-70
2023/06/19 11:47:30;;;;;;;5.57;2.15;;;29.10;69.20;;;;;;5031404;28;20519;-70
2023/06/19 11:49:56;;;;;;;3.13;2.25;;;29.10;69.20;;;;;;5030046;28;20415;-70
2023/06/19 11:52:21;;;;;;;6.35;2.95;;;28.80;70.00;;;;;;5031637;28;20034;-70
2023/06/19 11:54:47;;;;;;;7.10;2.60;;;28.80;70.00;;;;;;5031360;28;20022;-69
2023/06/19 11:57:13;;;;;;;3.47;2.50;;;28.90;69.60;;;;;;5031391;28;20103;-69
2023/06/19 11:59:42;;;;;;;3.47;2.30;;;28.80;69.70;;;;;;5031080;28;20029;-69
2023/06/19 12:02:08;;;;;;;5.05;2.33;;;28.80;69.60;;;;;;5030814;28;20029;-71
2023/06/19 12:04:35;;;;;;;7.93;2.95;;;28.90;70.10;;;;;;5030962;28;20356;-70
2023/06/19 12:07:01;;;;;;;4.50;2.50;;;29.10;70.00;;;;;;5031311;28;20115;-73
2023/06/19 12:09:27;;;;;;;5.13;2.50;;;29.20;70.20;;;;;;5030794;28;20453;-70
2023/06/19 12:11:53;;;;;;;4.35;2.70;;;29.40;70.50;;;;;;5030778;28;20022;-71
2023/06/19 12:14:20;;;;;;;5.25;2.72;;;29.30;70.10;;;;;;5030805;28;20115;-72
2023/06/19 12:16:46;;;;;;;8.10;2.92;;;29.10;70.60;;;;;;5029782;28;20033;-71
2023/06/19 12:19:12;;;;;;;3.38;2.70;;;29.10;71.20;;;;;;5030130;28;20032;-71
2023/06/19 12:21:38;;;;;;;2.83;2.42;;;29.10;70.80;;;;;;5030825;28;20033;-71
2023/06/19 12:24:04;;;;;;;2.72;2.30;;;29.00;70.70;;;;;;5030625;28;20353;-70
2023/06/19 12:26:30;;;;;;;3.83;3.10;;;29.00;70.80;;;;;;5030660;28;20056;-70
2023/06/19 12:28:55;;;;;;;3.25;2.88;;;29.00;70.90;;;;;;5030644;28;20041;-70
2023/06/19 12:31:21;;;;;;;7.47;3.40;;;29.00;71.00;;;;;;5031271;28;20348;-70
2023/06/19 12:33:48;;;;;;;3.03;2.53;;;29.20;70.40;;;;;;5030829;28;20113;-70
2023/06/19 12:36:16;;;;;;;3.07;2.73;;;29.00;69.80;;;;;;5030975;28;20045;-71
2023/06/19 12:38:42;;;;;;;11.30;3.22;;;28.90;70.50;;;;;;5030847;28;20036;-70
2023/06/19 12:41:07;;;;;;;4.85;2.30;;;28.90;70.40;;;;;;5030460;28;20038;-70
2023/06/19 12:43:33;;;;;;;4.63;3.13;;;29.00;70.00;;;;;;5030884;28;20025;-71